OCO122P EBOS-EBAW
Flight info
| Callsign | OCO122P |
|---|---|
| Flight time | N/A |
| Altitude | 3000 |
| Route | GESPO |
| Aircraft | DA40/L-SBDGRY/S |
Departure
| Time | 2026-04-20 19:59 |
|---|---|
| Airport | Ostend-Bruges International Airport (EBOS) |
Arrival
| Time | N/A |
|---|---|
| Airport | Antwerp International Airport (Deurne) (EBAW) |
| Time | Latitude | Longitude | Altitude | Speed | Heading |
|---|---|---|---|---|---|
| 2026-04-20 19:37 | 51.19951 | 2.85566 | 5 ft | 0 kts | 231° |
| 2026-04-20 19:54 | 51.19950 | 2.85565 | 11 ft | 1 kts | 228° |
| 2026-04-20 19:54 | 51.19942 | 2.85553 | 11 ft | 0 kts | 201° |
| 2026-04-20 19:54 | 51.19935 | 2.85553 | 11 ft | 7 kts | 165° |
| 2026-04-20 19:54 | 51.19878 | 2.85603 | 11 ft | 0 kts | 196° |
| 2026-04-20 19:55 | 51.19870 | 2.85596 | 11 ft | 1 kts | 223° |
| 2026-04-20 19:55 | 51.19869 | 2.85594 | 11 ft | 2 kts | 236° |
| 2026-04-20 19:55 | 51.19858 | 2.85520 | 11 ft | 11 kts | 262° |
| 2026-04-20 19:55 | 51.19845 | 2.85380 | 11 ft | 14 kts | 265° |
| 2026-04-20 19:56 | 51.19791 | 2.85284 | 11 ft | 12 kts | 209° |
| 2026-04-20 19:56 | 51.19779 | 2.85272 | 11 ft | 0 kts | 214° |
| 2026-04-20 19:56 | 51.19778 | 2.85271 | 11 ft | 0 kts | 211° |
| 2026-04-20 19:57 | 51.19753 | 2.85252 | 11 ft | 6 kts | 200° |
| 2026-04-20 19:57 | 51.19679 | 2.85295 | 11 ft | 16 kts | 131° |
| 2026-04-20 19:57 | 51.19677 | 2.85412 | 11 ft | 0 kts | 76° |
| 2026-04-20 19:58 | 51.19718 | 2.85669 | 10 ft | 51 kts | 78° |
| 2026-04-20 19:58 | 51.19820 | 2.86438 | 17 ft | 88 kts | 73° |
| 2026-04-20 19:58 | 51.19939 | 2.87260 | 114 ft | 98 kts | 73° |
| 2026-04-20 19:58 | 51.20094 | 2.88313 | 199 ft | 107 kts | 76° |
| 2026-04-20 19:59 | 51.20237 | 2.89433 | 418 ft | 96 kts | 69° |
| 2026-04-20 19:59 | 51.20331 | 2.90472 | 586 ft | 105 kts | 85° |
| 2026-04-20 19:59 | 51.19966 | 2.91477 | 805 ft | 120 kts | 139° |
| 2026-04-20 19:59 | 51.19139 | 2.91760 | 1002 ft | 131 kts | 181° |
| 2026-04-20 20:00 | 51.18194 | 2.91633 | 875 ft | 142 kts | 182° |
| 2026-04-20 20:00 | 51.17321 | 2.91902 | 814 ft | 129 kts | 142° |
| 2026-04-20 20:00 | 51.16631 | 2.92748 | 812 ft | 119 kts | 128° |
| 2026-04-20 20:00 | 51.16042 | 2.93593 | 936 ft | 110 kts | 129° |
| 2026-04-20 20:01 | 51.15489 | 2.94419 | 1027 ft | 106 kts | 127° |
| 2026-04-20 20:01 | 51.14951 | 2.95273 | 991 ft | 114 kts | 127° |
| 2026-04-20 20:01 | 51.14392 | 2.96166 | 1093 ft | 107 kts | 126° |
| 2026-04-20 20:01 | 51.13854 | 2.97104 | 959 ft | 119 kts | 116° |
| 2026-04-20 20:02 | 51.13478 | 2.98332 | 703 ft | 125 kts | 106° |
| 2026-04-20 20:02 | 51.13141 | 2.99488 | 876 ft | 105 kts | 109° |
| 2026-04-20 20:02 | 51.12819 | 3.00502 | 1080 ft | 108 kts | 104° |
| 2026-04-20 20:02 | 51.12542 | 3.01714 | 1079 ft | 124 kts | 101° |
| 2026-04-20 20:03 | 51.12275 | 3.03151 | 646 ft | 154 kts | 100° |
| 2026-04-20 20:03 | 51.12027 | 3.04790 | 647 ft | 128 kts | 99° |
| 2026-04-20 20:03 | 51.11827 | 3.05906 | 762 ft | 87 kts | 98° |
| 2026-04-20 20:03 | 51.11710 | 3.06839 | 754 ft | 97 kts | 88° |
| 2026-04-20 20:04 | 51.11735 | 3.08139 | 514 ft | 120 kts | 82° |
| 2026-04-20 20:04 | 51.11775 | 3.09405 | 673 ft | 112 kts | 83° |
| 2026-04-20 20:05 | 51.11779 | 3.09795 | 652 ft | 117 kts | 86° |
| 2026-04-20 20:05 | 51.11781 | 3.10873 | 774 ft | 113 kts | 79° |
| 2026-04-20 20:06 | 51.11892 | 3.12104 | 786 ft | 119 kts | 78° |
| 2026-04-20 20:06 | 51.12012 | 3.13407 | 658 ft | 127 kts | 78° |
| 2026-04-20 20:06 | 51.12139 | 3.14751 | 690 ft | 122 kts | 78° |
| 2026-04-20 20:06 | 51.12375 | 3.15975 | 734 ft | 116 kts | 55° |
| 2026-04-20 20:07 | 51.12891 | 3.16977 | 797 ft | 115 kts | 35° |
| 2026-04-20 20:07 | 51.13551 | 3.17648 | 876 ft | 115 kts | 32° |
| 2026-04-20 20:07 | 51.14185 | 3.18312 | 946 ft | 113 kts | 27° |
| 2026-04-20 20:07 | 51.14921 | 3.18793 | 980 ft | 115 kts | 23° |
| 2026-04-20 20:08 | 51.15621 | 3.19279 | 991 ft | 117 kts | 28° |
| 2026-04-20 20:08 | 51.16138 | 3.20267 | 989 ft | 120 kts | 59° |
| 2026-04-20 20:08 | 51.16525 | 3.21447 | 984 ft | 120 kts | 59° |
| 2026-04-20 20:08 | 51.16943 | 3.22565 | 974 ft | 116 kts | 44° |
| 2026-04-20 20:09 | 51.17666 | 3.23050 | 982 ft | 115 kts | 15° |
| 2026-04-20 20:09 | 51.18471 | 3.23134 | 982 ft | 116 kts | 5° |
| 2026-04-20 20:09 | 51.19280 | 3.23168 | 986 ft | 116 kts | 4° |
| 2026-04-20 20:09 | 51.20090 | 3.22982 | 986 ft | 119 kts | 352° |
| 2026-04-20 20:10 | 51.20897 | 3.22712 | 989 ft | 118 kts | 353° |
| 2026-04-20 20:10 | 51.21647 | 3.22213 | 970 ft | 119 kts | 320° |
| 2026-04-20 20:10 | 51.21777 | 3.21010 | 971 ft | 115 kts | 249° |
| 2026-04-20 20:10 | 51.21173 | 3.20418 | 971 ft | 99 kts | 177° |
| 2026-04-20 20:11 | 51.20529 | 3.20500 | 959 ft | 86 kts | 141° |
| 2026-04-20 20:11 | 51.20119 | 3.21042 | 959 ft | 70 kts | 105° |
| 2026-04-20 20:11 | 51.19987 | 3.21744 | 943 ft | 66 kts | 99° |
| 2026-04-20 20:11 | 51.19828 | 3.22518 | 1046 ft | 85 kts | 99° |
| 2026-04-20 20:12 | 51.19627 | 3.23494 | 1189 ft | 102 kts | 109° |
| 2026-04-20 20:12 | 51.19078 | 3.24437 | 1186 ft | 126 kts | 128° |
| 2026-04-20 20:12 | 51.18553 | 3.25588 | 1110 ft | 132 kts | 108° |
| 2026-04-20 20:13 | 51.17828 | 3.28405 | 995 ft | 139 kts | 107° |
| 2026-04-20 20:13 | 51.17450 | 3.29826 | 991 ft | 139 kts | 107° |
| 2026-04-20 20:13 | 51.17075 | 3.31240 | 997 ft | 138 kts | 107° |
| 2026-04-20 20:13 | 51.16700 | 3.32669 | 982 ft | 137 kts | 107° |
| 2026-04-20 20:14 | 51.16363 | 3.33947 | 987 ft | 136 kts | 107° |
| 2026-04-20 20:14 | 51.16223 | 3.34477 | 984 ft | 136 kts | 107° |
| 2026-04-20 20:14 | 51.15937 | 3.35565 | 982 ft | 133 kts | 107° |
| 2026-04-20 20:14 | 51.15580 | 3.36901 | 974 ft | 129 kts | 107° |
| 2026-04-20 20:15 | 51.15229 | 3.38214 | 974 ft | 129 kts | 107° |
| 2026-04-20 20:15 | 51.14885 | 3.39426 | 659 ft | 144 kts | 135° |
| 2026-04-20 20:15 | 51.14279 | 3.40310 | 1241 ft | 99 kts | 129° |
| 2026-04-20 20:15 | 51.13774 | 3.41181 | 1091 ft | 100 kts | 115° |
| 2026-04-20 20:16 | 51.13477 | 3.41895 | 1674 ft | 56 kts | 105° |
| 2026-04-20 20:16 | 51.13294 | 3.42970 | 492 ft | 158 kts | 85° |
| 2026-04-20 20:16 | 51.13586 | 3.44540 | 458 ft | 136 kts | 59° |
| 2026-04-20 20:16 | 51.13994 | 3.45869 | 107 ft | 150 kts | 63° |
| 2026-04-20 20:17 | 51.14376 | 3.47324 | 97 ft | 128 kts | 64° |
| 2026-04-20 20:17 | 51.14677 | 3.48438 | 93 ft | 104 kts | 60° |
| 2026-04-20 20:17 | 51.14965 | 3.49537 | 294 ft | 89 kts | 71° |
| 2026-04-20 20:17 | 51.14751 | 3.50361 | 232 ft | 113 kts | 175° |
| 2026-04-20 20:18 | 51.14384 | 3.49617 | 422 ft | 100 kts | 286° |
| 2026-04-20 20:18 | 51.14590 | 3.48584 | 221 ft | 113 kts | 292° |
| 2026-04-20 20:18 | 51.14361 | 3.47257 | 103 ft | 136 kts | 250° |
| 2026-04-20 20:18 | 51.13852 | 3.46318 | 473 ft | 121 kts | 164° |
| 2026-04-20 20:19 | 51.13921 | 3.47306 | 563 ft | 108 kts | 41° |
| 2026-04-20 20:19 | 51.14524 | 3.48299 | 336 ft | 135 kts | 46° |
| 2026-04-20 20:19 | 51.14977 | 3.49684 | 171 ft | 141 kts | 65° |
| 2026-04-20 20:19 | 51.15417 | 3.50909 | 438 ft | 124 kts | 56° |
| 2026-04-20 20:20 | 51.16014 | 3.52143 | 70 ft | 145 kts | 48° |
| 2026-04-20 20:20 | 51.16721 | 3.53178 | 63 ft | 136 kts | 33° |
| 2026-04-20 20:20 | 51.17165 | 3.54264 | 502 ft | 106 kts | 60° |
| 2026-04-20 20:20 | 51.17512 | 3.55358 | 650 ft | 110 kts | 62° |
| 2026-04-20 20:21 | 51.18146 | 3.55967 | 96 ft | 144 kts | 355° |
| 2026-04-20 20:21 | 51.18837 | 3.56609 | 386 ft | 130 kts | 59° |
| 2026-04-20 20:21 | 51.19296 | 3.57974 | 127 ft | 146 kts | 58° |
| 2026-04-20 20:21 | 51.19779 | 3.59403 | 76 ft | 141 kts | 59° |
| 2026-04-20 20:22 | 51.20146 | 3.60772 | 144 ft | 134 kts | 65° |
| 2026-04-20 20:22 | 51.20395 | 3.61895 | 792 ft | 88 kts | 68° |
| 2026-04-20 20:22 | 51.20581 | 3.62773 | 1139 ft | 93 kts | 69° |
| 2026-04-20 20:22 | 51.20763 | 3.63700 | 1441 ft | 56 kts | 74° |
| 2026-04-20 20:23 | 51.20989 | 3.64926 | 112 ft | 167 kts | 68° |
| 2026-04-20 20:23 | 51.21188 | 3.65864 | 1110 ft | 55 kts | 64° |
| 2026-04-20 20:23 | 51.21039 | 3.67282 | 37 ft | 160 kts | 105° |
| 2026-04-20 20:23 | 51.20721 | 3.68892 | 35 ft | 147 kts | 104° |
| 2026-04-20 20:24 | 51.20414 | 3.70425 | 35 ft | 143 kts | 108° |
| 2026-04-20 20:24 | 51.20157 | 3.71766 | 38 ft | 112 kts | 100° |
| 2026-04-20 20:24 | 51.20014 | 3.73046 | 65 ft | 120 kts | 90° |
| 2026-04-20 20:24 | 51.19974 | 3.74143 | 21 ft | 75 kts | 120° |
| 2026-04-20 20:25 | 51.19976 | 3.74734 | 15 ft | 5 kts | 332° |
| 2026-04-20 20:25 | 51.19970 | 3.74734 | 13 ft | 4 kts | 282° |
| 2026-04-20 20:25 | 51.19976 | 3.74713 | 15 ft | 1 kts | 326° |
| 2026-04-20 20:25 | 51.19972 | 3.74715 | 13 ft | 2 kts | 354° |
| 2026-04-20 20:26 | 51.19973 | 3.74716 | 14 ft | 0 kts | 24° |
| 2026-04-20 20:26 | 51.19975 | 3.74720 | 14 ft | 0 kts | 45° |
| 2026-04-20 20:26 | 51.19969 | 3.74709 | 13 ft | 2 kts | 44° |
| 2026-04-20 20:27 | 51.19959 | 3.74691 | 16 ft | 1 kts | 75° |
| 2026-04-20 20:27 | 51.19956 | 3.74842 | 16 ft | 19 kts | 22° |
| 2026-04-20 20:27 | 51.19924 | 3.74882 | 12 ft | 0 kts | 282° |
| 2026-04-20 20:27 | 51.19924 | 3.74884 | 12 ft | 0 kts | 282° |
| 2026-04-20 20:28 | 51.19924 | 3.74886 | 13 ft | 0 kts | 282° |